Eastampton, New Jersey
Current Conditions -  °F | °C
As of 8:54 PM on Friday 24 Oct 2014 (Local Time) from KVAY Reporting Station
Clear Clear  
Wind Chill: 60°   Ceiling: Unl
Heat Index: 60°   Visibility: 10mi
Dew Point: 45°   Wind: 5mph
Humidity: 57%   Direction: 270°W
Pressure: 29.85"   Gusts: NA
Location:  39.9896°N, 74.8021°W
Report Text: KVAY 250054Z AUTO 27004KT 10SM CLR 16/07 A2985 RMK AO2 SLP106 T01560072
Loading
Personal Weather Stations






























Interactive Weather Map
Tropical Storm Tracking
New forecast layout! Learn more

10-Day Weather Forecast

Advertisements
Track Severe Weather on mobile